Wetterdaten

DWD-Station Bevern, Kr. Holzminden (110 m ü. NN)

Seit 01.07.2006 ist die nebenamtliche Klimastation des Typs WST III (zunächst AMDA III, seit der Umrüstung Ende Juni 2019 MODES) am östlichen Ortsrand von Bevern in lockerer Bebauung im offiziellen Betrieb. Gemessen wird das Standardprogramm aus Lufttemperatur in 2 m und 5 cm über dem Erdboden, die Luftfeuchte in 2 m Höhe sowie die Niederschlagsmenge mittels automatisch arbeitender Sensorik. Von Oktober bis einschließlich April wird zudem die tägliche Schneehöhe um 05:50 Uhr UTC durch den ehrenamtlichen Beobachter ermittelt und via Online-Tool an den DWD gemeldet.

Mit der Inbetriebnahme des Standorts konnte die Zeitreihe 02323 des DWD, die zurückgeht bis in das Jahr 1934, als erste offizielle Beobachtungen am Landschulheim vorgenommen werden, nach fast 15 Jahren Unterbrechung wieder aufgenommen werden. Zuvor war nach dem Landschulheim an der Kaserne in Holzminden, nach dem Krieg viele Jahre auf einem Privatgrundstück in der Straße Über dem Gerichte und schließlich von November 1978 bis Juli 1991 am Bergblick/Ecke Sonnenwinkel gemessen worden, damals noch mit manuellen Instrumenten und Aufzeichnung per Hand.

Von August 1991 bis Juni 2006 ist die Reihe leider unterbrochen, die hier verwendeten langjährigen Klimawerte wurden daher zu einem Teil interpoliert, dazu wurden benachbarte Stationen aus dem DWD-Klima- und Niederschlagsnetz ebenso verwendet wie die Rastermittel des DWD.

Werte ab 1951 bzw. 1934 beim DWD: CDC
Und unter opendata.dwd.de 
Download zip-Datei Tageswerte recent
Download zip-Datei Tageswerte historical
Download zip-Datei Monatswerte

Werte 2019

Oktober 2021 an der DWD-Station Bevern

(110 m über NN, Sonnenscheindauer interpoliert)

  Tmit Tmax Tmin Tn 5cm RR 24h SHK SSD
01.10.2021 12,6 18,9 7,1 4,5 0,4 0 7,5
02.10.2021 14,8 19,5 10,8 10,0 0,0 0 1,2
03.10.2021 19,7 22,7 12,6 10,6 1,3 0 0,1
04.10.2021 12,5 17,3 8,4 6,0 0,0 0 2,6
05.10.2021 11,9 15,9 8,5 7,0 2,3 0 1,6
06.10.2021 12,0 14,8 10,3 8,2   0 1,3
07.10.2021 11,6 15,9 5,6 3,1   0 2,1
08.10.2021 9,8 17,1 4,9 2,7 0,0 0 5,7
09.10.2021 8,1 16,1 2,9 0,3 0,0 0 8,1
10.10.2021 6,3 15,5 -0,4 -3,0 0,6 0 8,6
11.10.2021 9,1 14,8 3,1 0,7 1,1 0 2,1
12.10.2021 9,0 13,5 5,5 3,1 7,1 0 2,3
13.10.2021 9,3 12,5 6,8 6,7 2,1 0 1,7
14.10.2021 11,2 12,8 9,2 8,9 0,4 0 0,0
15.10.2021 10,1 12,6 3,6 0,8 1,2 0 2,0
16.10.2021 6,5 11,7 2,8 0,4 0,0 0 1,7
               
               
               
               
               
               
               
               
               
               
               
               
               
               
               
Mittelwert/
Summe
10,91 15,7 6,4 4,4 16,5 0 48,5
Mittelwert
1991-2020
9,91       68,3   97,6

Datenbasis: DWD, teilweise bearbeitet


September 2021 an der DWD-Station Bevern

(110 m über NN, Sonnenscheindauer interpoliert)

  Tmit Tmax Tmin Tn 5cm RR 24h SSD
01.09.2021 16,1 21,0 10,6 9,1 0,0 4,2
02.09.2021 15,0 22,1 9,1 7,9 0,0 5,5
03.09.2021 15,8 24,3 10,3 8,7 0,0 10,5
04.09.2021 14,7 20,8 10,3 8,1 0,0 6,6
05.09.2021 14,8 22,9 7,3 5,8 0,0 11,1
06.09.2021 15,7 23,5 9,8 8,2 0,0 7,5
07.09.2021 17,2 23,9 11,9 10,3 0,0 8,1
08.09.2021 17,9 26,1 9,9 8,1 0,0 11,8
09.09.2021 19,8 28,4 10,4 8,5 2,9 11,2
10.09.2021 19,9 24,5 17,5 16,5 8,0 2,1
11.09.2021 18,7 23,2 14,5 12,7 2,0 4,3
12.09.2021 17,4 21,8 11,8 10,0 0,0 3,3
13.09.2021 14,9 21,5 10,8 9,1 0,0 5,2
14.09.2021 17,4 25,4 9,8 8,2 0,6 9,7
15.09.2021 18,9 22,7 15,8 14,4 1,1 0,1
16.09.2021 16,1 17,8 13,4 11,3 0,7 0,8
17.09.2021 15,2 18,9 11,5 9,5 0,0 1,1
18.09.2021 14,1 18,6 10,1 8,5 0,0 2,4
19.09.2021 13,4 14,7 10,2 9,3 0,0 0,0
20.09.2021 12,1 14,8 10,1 9,4 0,0 0,4
21.09.2021 12,8 16,7 9,0 6,8 0,0 1,6
22.09.2021 14,1 19,0 8,5 5,2 0,0 4,6
23.09.2021 14,4 21,0 7,3 4,7 0,3 8,1
24.09.2021 15,8 19,1 13,0 11,0 0,0 0,5
25.09.2021 16,0 19,5 10,7 7,9 0,0 1,2
26.09.2021 17,5 25,8 10,1 7,5 1,9 6,6
27.09.2021 17,9 22,3 13,9 12,8 2,3 4,3
28.09.2021 13,4 18,4 8,7 6,7 0,0 4,2
29.09.2021 11,1 18,2 8,3 6,7 4,0 2,1
30.09.2021 11,0 15,8 7,5 4,9 0,0 5,9
             
Mittelwert/
Summe
15,62 21,1 10,7 8,9 23,8

145,0

Mittelwert
1991-2020
14,22       61,3 144,1

Datenbasis: DWD, teilweise bearbeitet


August 2021 an der DWD-Station Bevern

(110 m über NN, Sonnenscheindauer interpoliert)

  Tmit Tmax Tmin Tn 5cm RR 24h SSD
01.08.2021 17,4 22,7 12,7 10,6 3,3 4,1
02.08.2021 16,8 21,3 12,1 10,1 0,0 4,9
03.08.2021 16,7 21,3 11,8 10,1 0,0 3,0
04.08.2021 17,0 22,9 12,9 11,1 1,0 3,6
05.08.2021 16,7 21,6 12,2 10,7 1,4 4,4
06.08.2021 16,3 21,5 11,3 9,7 11,6 3,7
07.08.2021 18,1 23,5 11,7 10,7 0,0 6,6
08.08.2021 16,9 22,3 11,6 9,6 0,1 3,4
09.08.2021 17,0 21,7 12,3 10,9 0,9 4,0
10.08.2021 17,4 23,5 12,6 10,9 0,4 5,2
11.08.2021 17,5 24,8 11,9 9,9 0,0 8,7
12.08.2021 20,1 28,4 11,8 10,3 0,0 9,1
13.08.2021 21,3 29,1 13,9 12,0 0,0 8,3
14.08.2021 19,6 27,5 11,5 10,0 0,0 12,8
15.08.2021 19,5 27,6 11,9 10,4 0,0 8,8
16.08.2021 15,8 19,7 12,5 10,8 3,6 0,9
17.08.2021 14,8 18,3 12,0 11,0 1,0 1,1
18.08.2021 16,3 20,3 13,3 12,9 0,2 0,2
19.08.2021 17,2 18,9 15,2 13,6 0,5 0,2
20.08.2021 17,5 21,9 14,1 12,3 0,2 3,5
21.08.2021 18,3 26,0 11,3 9,4 7,2 6,9
22.08.2021 17,8 23,2 13,8 11,8 14,9 2,3
23.08.2021 17,0 21,9 11,0 8,8 0,3 4,8
24.08.2021 14,4 21,2 8,4 6,4 0,0 10,2
25.08.2021 15,0 22,4 7,2 5,6 1,2 5,2
26.08.2021 15,5 19,3 13,2 11,5 1,9 2,5
27.08.2021 13,9 16,8 11,1 10,1 17,2 1,3
28.08.2021 14,5 18,3 11,4 10,8 13,8 1,0
29.08.2021 15,1 16,7 13,7 13,5 4,6 0,0
30.08.2021 16,8 19,4 15,3 13,6 0,4 0,6
31.08.2021 17,4 22,2 14,2 11,8 0,0 6,9
Mittelwert/
Summe
16,95 22,1 12,3 10,7 85,7

131,2

Mittelwert
1991-2020
18,22       71,8 193,4

Datenbasis: DWD, teilweise bearbeitet


Juli 2021 an der DWD-Station Bevern

(110 m über NN, Sonnenscheindauer interpoliert)

  Tmit Tmax Tmin Tn 5cm RR 24h SSD
01.07.2021 14,2 15,3 13,1 12,6 12,1 0,0
02.07.2021 15,5 20,0 10,9 9,6 0,0 0,7
03.07.2021 17,6 25,4 9,5 8,4 0,0 11,5
04.07.2021 18,8 25,9 12,6 11,8 0,4 4,4
05.07.2021 17,9 22,1 13,0 11,8 1,7 4,6
06.07.2021 19,8 23,9 15,8 14,3 4,9 3,9
07.07.2021 19,3 25,9 13,9 13,2 0,0 7,1
08.07.2021 18,3 25,0 13,6 12,5 3,5 3,2
09.07.2021 16,9 18,2 14,4 12,7 11,0 0,0
10.07.2021 18,2 23,8 13,0 11,8 0,0 3,1
11.07.2021 18,6 24,3 13,2 12,1 5,0 4,5
12.07.2021 20,6 27,2 14,5 13,5 0,0 6,5
13.07.2021 19,9 24,5 14,8 13,9 0,3 1,1
14.07.2021 18,2 20,2 14,0 12,3 2,2 0,3
15.07.2021 19,9 26,5 13,1 11,9 0,0 8,8
16.07.2021 18,9 20,9 17,1 17,2 0,0 0,0
17.07.2021 20,6 27,0 14,7 12,6 0,0 8,4
18.07.2021 20,3 27,1 12,6 10,8 0,0 10,3
19.07.2021 17,7 21,6 13,9 12,3 0,0 2,9
20.07.2021 16,6 21,1 13,1 12,8 0,0 2,1
21.07.2021 18,0 21,9 14,8 14,3 0,0 0,8
22.07.2021 19,3 24,7 14,1 12,2 0,0 3,2
23.07.2021 18,7 24,9 12,5 10,8 0,0 13,1
24.07.2021 20,8 28,5 12,4 11,2 1,2 7,9
25.07.2021 21,3 26,7 15,1 13,6 0,7 7,2
26.07.2021 20,6 28,2 16,1 14,7 22,4 8,2
27.07.2021 19,1 26,4 14,5 13,8 3,2 5,2
28.07.2021 18,6 24,0 13,6 12,5 1,2 6,0
29.07.2021 17,8 22,6 12,3 10,2 0,0 8,5
30.07.2021 19,3 26,1 11,1 9,3 0,0 9,7
31.07.2021 17,7 21,9 13,5 10,7 0,2 2,6
Mittelwert/
Summe
18,68 23,9 13,6 12,3 69,8

155,8

Mittelwert
1991-2020
18,58       80,4 204,4

Datenbasis: DWD, teilweise bearbeitet


Juni 2021 an der DWD-Station Bevern

(110 m über NN, Sonnenscheindauer interpoliert)

  Tmit Tmax Tmin Tn 5cm RR 24h SSD
01.06.2021 16,0 24,8 5,4 3,4 0,0 13,5
02.06.2021 20,6 27,5 12,1 10,7 0,0 11,8
03.06.2021 19,6 28,5 12,9 10,6 2,6 7,3
04.06.2021 20,5 26,4 15,2 14,5 0,4 5,8
05.06.2021 19,3 24,5 15,5 14,6 6,3 3,2
06.06.2021 17,2 19,8 15,7 15,6 0,0 0,0
07.06.2021 17,5 20,0 14,9 14,7 0,0 0,8
08.06.2021 18,6 22,2 15,4 14,9 0,0 2,8
09.06.2021 20,3 26,4 13,7 12,3 0,3 10,1
10.06.2021 19,4 26,5 12,8 11,2 0,0 14,0
11.06.2021 20,0 27,0 11,5 10,3 0,0 12,2
12.06.2021 18,1 22,4 13,7 11,5 0,1 5,3
13.06.2021 15,8 21,5 9,6 7,2 0,0 14,7
14.06.2021 18,8 27,9 8,3 6,8 0,0 15,2
15.06.2021 18,1 23,6 12,4 11,2 0,0 9,1
16.06.2021 21,9 30,1 11,0 9,5 0,0 13,9
17.06.2021 26,3 33,4 17,0 14,6 0,0 15,2
18.06.2021 25,1 34,1 17,5 15,9 0,0 10,8
19.06.2021 25,1 31,3 18,8 17,3 25,1 13,5
20.06.2021 23,9 28,6 18,4 18,1 15,7 9,1
21.06.2021 19,7 25,4 13,9 14,0 0,0 4,2
22.06.2021 15,5 18,5 13,2 12,2 0,0 0,2
23.06.2021 16,4 20,6 13,1 11,9 0,0 1,1
24.06.2021 17,2 21,2 15,2 14,4 0,5 0,1
25.06.2021 18,1 23,4 12,3 11,3 0,0 8,3
26.06.2021 18,5 25,5 11,0 9,7 0,0 7,9
27.06.2021 20,7 27,5 11,8 10,0 0,0 12,4
28.06.2021 21,8 27,5 17,0 16,3 9,4 3,5
29.06.2021 20,6 26,5 16,5 16,4 25,6 4,4
30.06.2021 17,5 21,2 15,3 14,9 12,5 0,5
             
Mittelwert/
Summe
19,60 25,5 13,7 12,3 98,5

230,9

Mittelwert
1991-2020
16,62       67,1 199,4

Datenbasis: DWD, teilweise bearbeitet


Mai 2021 an der DWD-Station Bevern

(110 m über NN, Sonnenscheindauer interpoliert)

  Tmit Tmax Tmin Tn 5cm RR 24h SSD
01.05.2021 8,7 14,0 4,1 2,1 0,0 2,5
02.05.2021 7,1 11,5 4,1 2,5 0,7 1,7
03.05.2021 8,6 14,2 2,1 -0,1 0,3 6,7
04.05.2021 10,5 13,3 7,3 6,0 4,0 2,3
05.05.2021 6,6 10,2 2,1 -0,7 2,9 3,1
06.05.2021 6,6 11,8 1,2 -0,8 7,3 3,8
07.05.2021 7,1 11,8 2,6 0,1 0,1 4,9
08.05.2021 9,5 16,0 -0,3 -2,3 0,1 7,6
09.05.2021 19,3 28,8 6,0 3,6 0,0 12,6
10.05.2021 18,8 25,8 14,1 11,0 12,7 2,4
11.05.2021 14,7 16,2 12,7 12,3 3,2 0,0
12.05.2021 13,7 16,7 11,2 10,8 1,9 0,4
13.05.2021 13,8 18,2 10,3 10,0 0,0 2,3
14.05.2021 12,8 17,0 8,1 6,2 0,1 3,6
15.05.2021 10,8 16,1 5,4 3,6 3,5 4,9
16.05.2021 11,8 17,3 6,7 4,7 2,3 3,4
17.05.2021 10,8 16,0 5,2 3,2 4,3 3,8
18.05.2021 10,8 15,3 6,9 5,3 4,7 2,8
19.05.2021 10,1 16,1 5,2 3,7 3,0 4,6
20.05.2021 12,9 18,0 7,7 6,4 0,0 6,7
21.05.2021 14,4 18,7 10,0 7,3 0,0 7,5
22.05.2021 10,6 12,9 8,4 6,3 5,9 1,6
23.05.2021 11,1 16,1 5,3 3,2 3,2 3,5
24.05.2021 13,2 21,2 4,5 2,5 0,4 9,0
25.05.2021 10,0 13,4 8,4 7,7 5,3 2,3
26.05.2021 11,0 16,9 8,6 7,5 6,6 3,4
27.05.2021 10,2 12,1 8,4 7,9 5,1 0,2
28.05.2021 12,7 18,8 8,3 6,9 2,3 6,0
29.05.2021 10,6 15,5 5,6 3,7 0,0 4,4
30.05.2021 13,4 21,2 3,8 2,2 0,0 11,9
31.05.2021 15,3 22,3 7,0 5,5 0,0 15,1
Mittelwert/
Summe
11,53 16,6 6,5 4,8 79,9 145,0
Mittelwert
1991-2020
13,52       59,2 198,1

Datenbasis: DWD, teilweise bearbeitet


April 2021 an der DWD-Station Bevern

(110 m über NN, Sonnenscheindauer interpoliert)

  Tmit Tmax Tmin Tn 5cm RR 24h SHK SSD
01.04.2021 11,1 19,8 6,7 4,2 0,0 0 8,5
02.04.2021 6,5 9,9 4,5 2,6 0,0 0 1,2
03.04.2021 7,0 12,2 3,6 1,8 0,0 0 5,0
04.04.2021 5,3 6,9 4,0 2,7 0,0 0 0,0
05.04.2021 3,2 6,7 -0,5 -1,2 7,5 0 2,4
06.04.2021 1,3 6,0 -0,5 -1,8 7,0 1 3,2
07.04.2021 1,9 5,3 -0,2 -1,1 2,8 4 0,2
08.04.2021 3,0 6,6 -1,2 -3,4 0,0 0 0,8
09.04.2021 6,5 13,0 -1,4 -3,4 2,5 0 4,2
10.04.2021 6,9 9,2 4,7 4,1 12,3 0 0,2
11.04.2021 6,4 10,3 2,4 2,2 9,6 0 0,0
12.04.2021 4,1 8,9 0,1 -2,4 1,7 0 5,2
13.04.2021 3,6 10,6 -1,1 -3,3 0,3 0 5,0
14.04.2021 2,6 9,1 -2,0 -3,7 0,4 0 4,8
15.04.2021 4,1 9,0 -1,7 -3,8 0,0 0 5,1
16.04.2021 7,5 12,8 2,2 -0,5 0,0 0 6,0
17.04.2021 7,0 11,4 1,3 -1,1 0,0 0 1,1
18.04.2021 9,3 15,3 3,5 1,1 3,5 0 3,7
19.04.2021 9,8 14,2 6,5 4,8 0,0 0 2,0
20.04.2021 11,1 18,7 3,6 0,9 0,0 0 11,1
21.04.2021 8,8 17,4 0,9 -1,7 0,0 0 9,6
22.04.2021 7,3 11,9 2,9 -1,1 0,0 0 3,4
23.04.2021 7,5 14,0 1,6 -2,0 0,0 0 8,2
24.04.2021 6,6 11,9 -0,4 -2,7 0,0 0 7,9
25.04.2021 5,0 11,5 -0,9 -3,8 0,0 0 6,8
26.04.2021 6,4 13,3 -2,2 -4,8 0,0 0 11,5
27.04.2021 8,2 14,1 0,2 -3,7 0,0 0 13,3
28.04.2021 12,3 19,7 1,6 -2,1 5,3 0 10,9
29.04.2021 10,4 15,8 6,0 5,6 3,8 0 2,7
30.04.2021 8,4 10,7 6,2 5,0 0,0 0 0,0
               
Mittelwert/
Summe
6,64

11,9

1,5 -0,4 56,7 2/4 144,0
Mittelwert
1991-2020
9,52       45,7   172,3

Datenbasis: DWD, teilweise bearbeitet


März 2021 an der DWD-Station Bevern

(110 m über NN, Sonnenscheindauer interpoliert)

  Tmit Tmax Tmin Tn 5cm RR 24h SHK SSD
01.03.2021 3,5 8,9 0,1 -2,7 0,0 0 4,1
02.03.2021 4,2 15,7 -1,5 -2,5 0,0 0 8,7
03.03.2021 5,5 15,0 -1,7 -3,7 0,0 0 5,7
04.03.2021 3,0 4,7 1,2 -1,6 1,2 0 0,0
05.03.2021 1,7 6,0 -3,8 -6,2 0,0 0 6,5
06.03.2021 0,5 7,2 -5,7 -7,6 0,0 0 3,5
07.03.2021 1,3 4,7 -2,9 -5,0 0,1 0 1,3
08.03.2021 3,2 7,2 1,1 -0,5 0,0 0 6,8
09.03.2021 1,8 2,9 0,4 -0,8 6,8 0 0,0
10.03.2021 5,4 8,4 2,3 1,9 1,7 F 0,5
11.03.2021 8,2 14,0 5,4 4,3 15,2 0 2,5
12.03.2021 6,6 10,8 3,4 2,5 6,6 0 2,9
13.03.2021 5,8 8,8 3,4 2,2 7,8 0 1,0
14.03.2021 5,2 8,2 3,4 1,9 8,9 0 1,3
15.03.2021 5,1 8,3 2,6 2,2 2,5 0 2,2
16.03.2021 4,5 8,1 1,8 -1,0 2,7 0 2,2
17.03.2021 3,5 7,5 -0,8 -2,8 0,0 0 2,1
18.03.2021 1,8 5,8 -1,7 -3,5 0,3 0 0,5
19.03.2021 2,7 6,9 -1,2 -3,9 0,0 0 5,8
20.03.2021 1,5 5,8 -3,7 -5,1 0,1 0 4,6
21.03.2021 5,6 8,1 4,3 3,3 0,3 0 1,3
22.03.2021 5,6 8,2 3,2 2,4 0,0 0 0,7
23.03.2021 6,0 10,4 -0,4 -2,3 0,0 0 0,4
24.03.2021 6,8 16,1 -0,6 -2,7 0,0 0 10,4
25.03.2021 8,0 15,6 0,1 -2,2 0,0 0 2,4
26.03.2021 10,8 16,5 4,2 1,5 1,4 0 7,4
27.03.2021 5,1 9,9 0,1 -2,5 5,1 0 2,6
28.03.2021 7,4 13,2 -0,1 -2,3 0,1 0 0,5
29.03.2021 12,8 21,0 5,4 2,2 0,0 0 10,0
30.03.2021 11,5 22,9 2,2 -0,9 0,0 0 11,7
31.03.2021 12,6 25,3 1,4 -1,2 0,0 0 11,8
Mittelwert/
Summe
5,39 10,7 0,7 -1,2 60,8 0 121,3
Mittelwert
1991-2020
5,22       61,3   116,5

Datenbasis: DWD, teilweise bearbeitet


Februar 2021 an der DWD-Station Bevern

(110 m über NN, Sonnenscheindauer interpoliert)

  Tmit Tmax Tmin Tn 5cm RR 24h SHK SSD
01.02.2021 0,7 3,0 -2,4 -4,1 0,1 0 0,0
02.02.2021 3,9 7,6 2,3 1,7 8,6 0 0,0
03.02.2021 8,3 10,9 6,5 5,9 9,6 0 0,0
04.02.2021 6,2 8,6 0,5 -1,7 1,4 0 0,5
05.02.2021 3,7 5,5 0,3 -1,3 0,1 0 0,0
06.02.2021 0,5 3,9 -2,8 -2,6 6,6 0 0,0
07.02.2021 -5,3 -2,8 -6,6 -6,8 5,2 6 0,0
08.02.2021 -8,3 -6,6 -9,7 -11,5 7,2 18 0,0
09.02.2021 -10,8 -5,2 -16,0 -20,7 0,0 25 4,5
10.02.2021 -11,3 -3,4 -18,7 -24,1 0,3 24 0,1
11.02.2021 -6,5 -1,0 -16,1 -21,3 0,0 25 4,5
12.02.2021 -11,6 -2,6 -17,5 -22,6 0,0 22 5,4
13.02.2021 -12,8 -3,9 -18,6 -24,8 0,0 20 8,9
14.02.2021 -11,0 -0,8 -18,5 -24,4 0,0 18 8,8
15.02.2021 -1,3 2,3 -7,7 -10,5 3,9 18 0,0
16.02.2021 2,8 6,6 1,0 -0,1 3,5 15 0,4
17.02.2021 5,4 8,9 2,4 0,3 0,6 9 0,8
18.02.2021 5,3 9,9 0,7 -1,4 4,4 5 0,6
19.02.2021 6,4 10,6 4,0 1,0 0,0 F 6,6
20.02.2021  8,0 15,8 2,5 0,2 0,0 0 7,1
21.02.2021  9,0 18,1 2,3 -1,5 0,0 0 9,4
22.02.2021  6,9 15,2 0,5 -2,7 0,0 0 7,6
23.02.2021  10,1 18,5 4,2 1,6 0,0 0 5,1
24.02.2021 11,0 19,3 5,1 2,6 0,0 0 8,3
25.02.2021 11,2 18,9 5,0 2,1 0,4 0 8,0
26.02.2021 7,8 11,4 2,5 -0,9 1,8 0 1,9
27.02.2021 4,2 5,0 2,4 -1,0 0,5 0 0,0
28.02.2021 5,5 9,8 2,5 2,1 0,0 0 4,5
               
               
               
Mittelwert/
Summe
1,36 6,6 -3,2 -5,9 54,2 12/25 93,0
Mittelwert
1991-2020
2,43       59,7   68,0

Datenbasis: DWD, teilweise bearbeitet


Januar 2021 an der DWD-Station Bevern

(110 m über NN, Sonnenscheindauer interpoliert)

  Tmit Tmax Tmin Tn 5cm RR 24h SHK SSD
01.01.2021 2,0 4,0 0,6 -0,1 0,2 0 1,0
02.01.2021 2,9 4,4 1,8 0,4 0,0 0 0,0
03.01.2021 1,9 3,1 0,6 0,0 5,1 0 0,0
04.01.2021 1,0 1,5 0,7 0,0 1,5 F 0,0
05.01.2021 1,5 3,0 0,8 0,2 1,8 0 0,0
06.01.2021 1,7 3,1 0,5 0,1 0,6 0 0,0
07.01.2021 0,9 1,8 0,2 -0,1 0,4 F 0,0
08.01.2021 0,9 1,5 0,1 -1,0 1,8 0 0,0
09.01.2021 0,7 2,2 -0,2 -2,4 0,0 F 0,1
10.01.2021 1,0 2,7 -0,9 -3,7 0,0 0 0,8
11.01.2021 1,8 3,2 0,8 0,4 6,1 0 0,0
12.01.2021 3,0 4,2 1,6 -0,2 9,3 0 0,4
13.01.2021 2,2 3,5 1,2 -0,7 2,4 0 0,0
14.01.2021 0,9 1,5 -1,0 -3,3 0,0 0 0,0
15.01.2021 -0,1 0,8 -1,3 -3,6 0,1 F 0,0
16.01.2021 -0,6 0,4 -1,6 -1,8 0,0 0 0,0
17.01.2021 -0,8 0,3 -2,2 -2,3 2,2 1 0,0
18.01.2021 3,3 5,0 0,3 0,0 0,7 F 0,0
19.01.2021 4,6 7,6 2,6 1,9 11,4 0 0,0
20.01.2021 6,8 9,5 3,6 2,2 0,0 0 2,2
21.01.2021 8,3 11,1 6,0 4,5 2,5 0 2,8
22.01.2021 5,1 10,6 -0,5 -2,7 0,0 0 0,6
23.01.2021 1,6 5,3 -0,4 -1,9 0,4 0 1,4
24.01.2021 1,3 2,1 0,3 -0,2 5,1 F 0,0
25.01.2021 -1,2 2,2 -3,1 -4,9 5,8 F 4,4
26.01.2021 0,9 2,2 -1,3 -1,6 1,1 4 0,1
27.01.2021 1,2 2,6 -0,3 -1,9 4,1 2 0,0
28.01.2021 2,0 3,0 0,9 -0,7 8,0 1 0,0
29.01.2021 3,9 8,0 1,0 0,6 13,9 0 0,0
30.01.2021 0,2 5,8 -1,9 -3,8 0,0 F 0,4
31.01.2021 -1,7 2,0 -5,4 -7,2 0,0 0 7,8
Mittelwert/
Summe
1,85 3,8 0,1 -1,1 84,9 4 22,0
Mittelwert
1991-2020
1,85       75,7   45,3

Datenbasis: DWD, teilweise bearbeitet


Dezember 2020 an der DWD-Station Bevern

(110 m über NN, Sonnenscheindauer interpoliert)

  Tmit Tmax Tmin Tn 5cm RR 24h SHK SSD
01.12.2020 2,5 3,4 1,5 1,2 0,6 0 0,0
02.12.2020 2,9 3,7 1,7 1,4 0,0 0 0,0
03.12.2020 2,3 3,2 1,7 0,5 0,0 0 0,0
04.12.2020 4,4 8,5 1,6 0,0 2,0 0 1,2
05.12.2020 2,4 4,1 0,6 -0,1 0,8 <1 0,5
06.12.2020 2,8 3,9 1,7 0,4 2,7 0 0,0
07.12.2020 3,9 5,4 1,6 -0,6 0,6 0 0,0
08.12.2020 2,8 6,2 -1,6 -3,3 0,0 0 2,5
09.12.2020 1,2 2,7 -1,3 -2,0 0,3 0 0,0
10.12.2020 2,2 3,4 1,0 0,8 0,1 0 0,0
11.12.2020 3,1 5,6 1,9 0,0 0,0 0 0,6
12.12.2020 4,7 6,5 2,8 2,1 0,6 0 0,0
13.12.2020 5,8 7,9 2,6 0,4 2,3 0 0,1
14.12.2020 6,7 8,6 4,0 1,4 4,5 0 0,2
15.12.2020 6,8 8,0 4,5 2,9 2,3 0 0,1
16.12.2020 6,9 10,3 3,6 1,7 0,0 0 1,5
17.12.2020 7,6 9,7 3,3 0,1 0,3 0 0,7
18.12.2020 5,4 9,9 2,3 -0,1 0,0 0 5,2
19.12.2020 5,6 10,9 0,4 -1,4 0,2 0 6,1
20.12.2020 6,2 7,4 5,1 3,7 1,5 0 0,1
21.12.2020 6,1 8,7 1,3 -0,6 9,5 0 2,1
22.12.2020 11,0 14,4 8,5 7,7 6,4 0 0,1
23.12.2020 9,8 11,4 8,4 7,1 6,0 0 0,0
24.12.2020 6,0 11,1 3,4 3,4 2,5 0 0,0
25.12.2020 1,4 4,3 -2,9 -4,8 0,3 0 3,1
26.12.2020 1,7 4,0 -3,2 -5,0 0,0 0 0,0
27.12.2020 3,4 4,3 2,2 1,8 0,4 0 0,0
28.12.2020 4,8 6,0 4,0 2,8 0,0 0 1,6
29.12.2020 2,5 5,2 -0,6 -3,2 0,2 0 0,6
30.12.2020 3,0 5,3 0,7 -1,8 1,7 0 0,4
31.12.2020 2,3 4,2 0,6 -1,8 0,3 0 0,0
Mittelwert/
Summe
4,46 6,7 2,0 0,4 45,8 0 26,8
Mittelwert
1981-2010
2,1       83,5   33,6

Datenbasis: DWD, teilweise bearbeitet


November 2020 an der DWD-Station Bevern

(110 m über NN, Sonnenscheindauer interpoliert)

  Tmit Tmax Tmin TEmin RR 24h SHK SSD
01.11.2020 14,3 16,8 11,3 10,1 0,7 0 0,5
02.11.2020 17,7 21,0 12,7 11,1 0,7 0 1,5
03.11.2020 10,8 13,5 7,3 5,2 0,0 0 4,0
04.11.2020 6,8 10,6 1,6 -0,9 0,0 0 4,9
05.11.2020 4,3 9,6 0,5 -1,8 0,0 0 2,6
06.11.2020 6,9 12,7 2,1 -0,3 0,0 0 4,4
07.11.2020 5,5 13,2 0,8 -1,3 0,0 0 7,9
08.11.2020 6,3 14,0 2,3 0,0 0,0 0 7,5
09.11.2020 6,2 12,0 2,5 -0,3 0,0 0 2,8
10.11.2020 4,1 8,7 2,1 -0,2 0,0 0 4,0
11.11.2020 7,2 11,1 3,9 1,9 0,0 0 0,2
12.11.2020 8,3 11,1 3,2 1,6 0,2 0 1,0
13.11.2020 7,7 11,4 2,0 -0,3 0,1 0 1,9
14.11.2020 11,2 15,6 8,1 5,5 0,0 0 1,7
15.11.2020 12,4 16,8 7,2 4,5 3,0 0 5,1
16.11.2020 10,3 12,0 6,7 3,7 0,4 0 0,6
17.11.2020 10,3 11,4 8,8 8,4 1,4 0 0,0
18.11.2020 10,7 12,9 7,3 4,2 0,3 0 3,5
19.11.2020 8,4 11,0 2,6 0,6 2,3 0 1,6
20.11.2020 3,4 6,6 -0,7 -2,7 0,3 0 0,8
21.11.2020 3,8 6,8 -1,5 -3,2 0,4 0 0,0
22.11.2020 7,5 9,2 5,6 5,1 2,3 0 0,0
23.11.2020 4,8 9,5 -0,4 -2,8 0,0 0 4,5
24.11.2020 4,8 8,0 0,2 -0,1 0,0 0 1,2
25.11.2020 4,3 7,0 0,8 -1,4 0,0 0 4,8
26.11.2020 5,0 7,2 3,6 3,3 1,1 0 0,2
27.11.2020 3,1 5,3 0,6 -1,2 0,0 0 1,3
28.11.2020 2,9 4,9 0,8 0,9 0,0 0 0,0
29.11.2020 0,8 5,1 -3,1 -4,7 0,0 0 1,3
30.11.2020 0,2 2,7 -3,4 -5,0 1,4 0 2,5
               
Mittelwert/
Summe
7,00 10,6 3,2 1,3 14,6 0 72,3
Mittelwert
1981-2010
5,28       73,2   43,1

Datenbasis: DWD, teilweise bearbeitet


Oktober 2020 an der DWD-Station Bevern

(110 m über NN, Sonnenscheindauer interpoliert)

  Tmit Tmax Tmin Tn 5cm RR 24h SSD
01.10.2020 13,7 19,9 7,6 6,2 0,0 4,1
02.10.2020 14,4 19,7 9,5 7,3 0,0 7,8
03.10.2020 14,8 22,6 7,3 5,4 0,2 3,6
04.10.2020 12,3 15,4 6,8 4,6 0,1 4,1
05.10.2020 11,9 15,9 7,9 5,1 1,3 1,5
06.10.2020 12,5 14,7 10,8 8,6 2,7 1,3
07.10.2020 12,2 15,3 10,6 9,9 4,1 1,0
08.10.2020 12,2 15,5 7,7 5,8 9,9 0,0
09.10.2020 12,0 14,8 8,5 6,1 0,7 1,3
10.10.2020 9,9 13,1 7,5 5,3 2,2 4,2
11.10.2020 9,3 12,6 6,0 4,7 0,6 3,4
12.10.2020 9,8 12,9 6,1 4,2 0,0 2,2
13.10.2020 7,5 13,5 3,8 1,6 0,1 1,2
14.10.2020 8,4 9,9 6,0 4,9 5,0 0,0
15.10.2020 8,6 10,0 7,6 6,9 0,3 0,0
16.10.2020 8,4 10,6 6,7 5,4 0,0 0,0
17.10.2020 7,7 10,1 6,1 4,8 0,0 0,2
18.10.2020 8,0 11,1 3,9 1,1 1,1 0,0
19.10.2020 9,0 12,4 3,9 1,1 0,0 0,8
20.10.2020 8,9 13,4 4,1 1,0 5,0 0,4
21.10.2020 13,2 16,8 10,1 9,0 1,7 1,0
22.10.2020 14,5 19,7 9,2 5,8 9,6 2,5
23.10.2020 12,5 14,3 9,6 7,7 20,8 0,0
24.10.2020 13,1 16,4 9,2 6,8 0,2 1,1
25.10.2020 13,4 15,4 11,2 9,3 3,3 0,3
26.10.2020 10,3 12,0 7,7 4,8 1,9 0,0
27.10.2020 9,9 12,6 7,3 5,4 0,0 2,2
28.10.2020 11,8 15,6 9,5 8,5 7,8 4,4
29.10.2020 9,8 12,2 7,4 6,3 11,2 2,0
30.10.2020 12,8 14,0 9,5 9,1 2,1 0,0
31.10.2020 12,9 15,0 10,2 7,4 2,4 0,4
Mittelwert/
Summe
11,15 14,4 7,7 5,8 94,3 51,0
Mittelwert
1981-2010
9,71       64,9 95,9

Datenbasis: DWD, teilweise bearbeitet


September 2020 an der DWD-Station Bevern

(110 m über NN, Sonnenscheindauer interpoliert)

  Tmit Tmax Tmin Tn 5cm RR 24h SSD
01.09.2020 13,5 18,8 8,6 6,8 0,2 2,5
02.09.2020 13,3 21,0 8,1 6,5 0,0 11,0
03.09.2020 13,2 18,8 6,6 5,9 5,0 1,4
04.09.2020 18,3 21,0 16,0 14,8 9,4 0,9
05.09.2020 13,9 17,5 9,5 8,1 3,8 1,1
06.09.2020 12,8 18,3 7,7 6,2 0,0 6,8
07.09.2020 13,6 20,9 7,6 5,8 0,0 9,2
08.09.2020 15,4 22,4 8,6 6,7 0,0 2,9
09.09.2020 18,0 24,0 12,7 10,4 0,6 1,4
10.09.2020 14,8 20,5 8,8 6,9 0,0 7,0
11.09.2020 12,9 21,5 7,2 6,1 0,0 10,4
12.09.2020 15,1 24,3 7,5 5,4 0,0 10,8
13.09.2020 16,7 26,5 9,0 7,0 0,0 10,6
14.09.2020 19,0 31,0 9,9 7,3 0,0 11,1
15.09.2020 19,8 31,2 11,5 8,8 0,0 10,4
16.09.2020 19,2 31,3 11,9 9,6 0,0 8,7
17.09.2020 13,7 19,1 7,7 4,2 0,0 10,3
18.09.2020 13,4 22,0 4,7 1,3 0,0 11,4
19.09.2020 14,9 24,6 6,8 3,7 0,0 10,8
20.09.2020 13,2 23,3 3,6 0,0 0,0 10,7
21.09.2020 14,7 25,1 5,8 3,0 0,0 11,2
22.09.2020 15,7 26,8 7,1 4,1 0,0 11,0
23.09.2020 16,8 25,1 9,5 7,1 0,7 7,6
24.09.2020 16,6 20,0 13,8 11,5 3,3 6,4
25.09.2020 13,1 16,4 8,4 5,4 0,1 2,1
26.09.2020 9,4 12,6 6,5 3,9 21,1 0,0
27.09.2020 10,4 13,6 7,4 5,5 0,0 0,3
28.09.2020 11,4 15,5 8,0 6,0 0,3 1,4
29.09.2020 11,9 17,1 5,5 3,1 0,5 6,1
30.09.2020 14,7 20,3 8,9 6,5 0,0 6,3
             
Mittelwert/
Summe
14,65 21,7 8,5 6,2 45,0

201,8

Mittelwert
1981-2010
13,94       72,2 134,1

Datenbasis: DWD, teilweise bearbeitet


August 2020 an der DWD-Station Bevern

(110 m über NN, Sonnenscheindauer interpoliert)

  Tmit Tmax Tmin Tn 5cm RR 24h SSD
01.08.2020 21,6 29,1 14,1 12,8 22,5 5,0
02.08.2020 19,8 24,8 16,4 13,9 4,1 2,9
03.08.2020 17,9 22,8 12,7 11,1 0,0 8,4
04.08.2020 16,3 22,9 9,8 8,2 0,0 9,8
05.08.2020 19,1 28,6 9,2 7,4 0,0 13,9
06.08.2020 21,8 31,3 11,7 9,7 0,0 13,9
07.08.2020 23,2 32,8 12,5 10,2 0,0 13,8
08.08.2020 25,3 35,5 14,9 12,9 0,0 13,7
09.08.2020 24,9 34,6 17,6 16,0 6,8 7,7
10.08.2020 24,4 30,0 19,5 17,3 0,0 10,8
11.08.2020 25,3 32,8 18,6 16,5 0,0 9,2
12.08.2020 25,0 32,9 18,5 16,5 1,6 7,3
13.08.2020 23,1 28,7 17,7 16,8 10,3 4,0
14.08.2020 20,9 25,9 18,0 17,8 21,2 1,4
15.08.2020 21,4 28,1 16,5 15,6 0,0 4,5
16.08.2020 22,5 29,1 16,4 15,7 0,0 8,1
17.08.2020 20,5 24,8 16,5 15,3 11,4 0,7
18.08.2020 19,1 24,1 15,2 14,0 1,1 4,4
19.08.2020 20,1 26,9 13,7 12,4 0,0 12,5
20.08.2020 22,5 28,4 16,9 15,8 0,0 2,5
21.08.2020 24,4 29,2 20,0 18,0 0,0 1,6
22.08.2020 21,7 26,6 17,4 14,9 0,0 8,1
23.08.2020 18,3 22,1 14,3 12,3 0,6 4,3
24.08.2020 16,0 19,9 12,3 10,0 0,2 2,2
25.08.2020 16,3 22,0 9,5 7,3 2,9 4,2
26.08.2020 16,7 18,6 14,7 13,9 1,0 0,0
27.08.2020 16,5 21,2 13,6 12,2 1,7 3,1
28.08.2020 16,8 21,3 12,4 10,8 0,9 3,3
29.08.2020 15,3 21,3 9,6 7,4 0,0 6,7
30.08.2020 16,8 22,7 10,7 8,3 1,0 5,6
31.08.2020 15,8 20,8 11,9 10,3 0,2 2,8
Mittelwert/
Summe
20,30 26,4 14,6 12,9 87,5

196,4

Mittelwert
1981-2010
17,70       77,4 193,3

Datenbasis: DWD, teilweise bearbeitet


Juli 2020 an der DWD-Station Bevern

(110 m über NN, Sonnenscheindauer interpoliert)

  Tmit Tmax Tmin Tn 5cm RR 24h SSD
01.07.2020 18,1 23,0 14,1 12,8 6,6 0,4
02.07.2020 17,5 23,2 14,0 12,9 10,7 4,4
03.07.2020 16,7 21,9 12,6 11,2 0,0 5,6
04.07.2020 18,9 22,9 13,1 10,7 0,3 1,3
05.07.2020 20,9 23,5 17,6 15,2 0,1 2,1
06.07.2020 15,3 19,1 12,2 11,4 4,8 5,6
07.07.2020 14,6 20,2 10,0 8,3 1,2 6,4
08.07.2020 14,3 16,8 12,4 11,7 0,8 0,0
09.07.2020 17,7 21,3 14,0 13,1 3,1 0,2
10.07.2020 16,1 20,5 8,9 7,1 0,0 1,7
11.07.2020 13,7 20,3 6,3 4,6 1,9 8,0
12.07.2020 14,9 22,2 9,0 7,7 0,0 10,7
13.07.2020 17,1 25,8 7,1 5,7 0,0 14,9
14.07.2020 17,4 26,5 9,6 8,1 6,3 8,0
15.07.2020 15,4 19,2 13,5 12,6 4,4 2,0
16.07.2020 14,9 18,6 11,0 9,6 0,9 1,0
17.07.2020 16,5 23,2 10,3 9,0 0,0 5,1
18.07.2020 18,9 27,0 11,3 9,6 0,0 8,8
19.07.2020 20,6 27,8 12,6 11,2 2,2 5,0
20.07.2020 17,2 22,2 11,0 9,2 0,1 4,7
21.07.2020 15,7 22,4 9,1 7,5 0,0 11,2
22.07.2020 15,6 21,7 7,5 6,2 0,0 8,3
23.07.2020 17,9 25,2 9,8 8,4 0,0 13,4
24.07.2020 19,4 25,8 11,8 10,7 0,0 3,7
25.07.2020 20,2 26,3 15,5 13,1 10,4 3,6
26.07.2020 19,5 25,3 14,4 13,2 3,0 6,3
27.07.2020 18,3 23,6 11,6 10,3 0,4 1,4
28.07.2020 19,6 24,8 14,6 12,8 0,1 5,5
29.07.2020 17,1 22,7 10,4 8,9 0,0 9,7
30.07.2020 17,3 25,4 8,4 6,8 0,0 14,2
31.07.2020 21,3 30,5 10,6 9,1 0,0 14,2
Mittelwert/
Summe
17,37 23,2 11,4 10,0 57,3

187,4

Mittelwert
1981-2010
18,23       74,6 199,0

Datenbasis: DWD, teilweise bearbeitet


Juni 2020 an der DWD-Station Bevern

(110 m über NN, Sonnenscheindauer interpoliert)

  Tmit Tmax Tmin Tn 5cm RR 24h SSD
01.06.2020 16,6 24,7 6,1 3,5 0,0 14,8
02.06.2020 18,7 26,8 9,3 6,4 0,0 14,2
03.06.2020 18,8 27,3 11,0 9,2 7,4 7,1
04.06.2020 14,3 17,7 11,5 10,6 12,3 0,1
05.06.2020 11,0 15,6 7,8 6,3 7,4 4,1
06.06.2020 12,2 17,7 7,6 5,9 0,6 8,8
07.06.2020 13,9 18,6 7,5 5,9 0,0 8,3
08.06.2020 14,0 19,1 6,5 4,5 0,0 5,9
09.06.2020 14,8 20,8 8,5 6,8 6,5 5,5
10.06.2020 16,5 21,9 12,3 11,8 0,8 1,2
11.06.2020 16,4 20,3 12,6 11,9 0,0 1,6
12.06.2020 20,5 27,3 12,4 10,5 0,0 10,5
13.06.2020 22,7 28,8 16,9 15,1 0,5 11,2
14.06.2020 19,4 20,9 17,8 16,4 11,5 0,8
15.06.2020 16,8 18,5 14,2 12,9 10,3 0,0
16.06.2020 17,4 22,3 14,2 12,9 0,0 1,3
17.06.2020 18,8 24,5 12,8 11,8 0,8 4,0
18.06.2020 16,3 17,6 13,8 13,0 23,3 0,0
19.06.2020 18,8 24,0 13,8 13,8 0,0 7,7
20.06.2020 18,3 23,4 12,6 11,1 0,0 11,5
21.06.2020 18,8 25,6 10,4 8,7 0,0 13,5
22.06.2020 18,9 24,5 12,1 10,6 0,3 5,9
23.06.2020 18,9 26,1 10,1 8,5 0,0 15,5
24.06.2020 19,7 26,6 11,1 9,2 0,0 14,2
25.06.2020 20,8 27,0 13,1 11,6 0,0 12,1
26.06.2020 22,3 29,0 13,5 11,5 0,0 15,1
27.06.2020 22,2 28,6 14,6 12,9 0,4 7,4
28.06.2020 18,5 23,3 12,2 9,8 0,1 1,4
29.06.2020 17,2 22,2 11,9 8,8 2,0 7,5
30.06.2020 17,7 22,6 11,1 8,6 2,9 5,4
             
Mittelwert/
Summe
17,71 23,1 11,6 10,0 87,1

216,6

Mittelwert
1981-2010
16,02       68,1 187,9

Datenbasis: DWD, teilweise bearbeitet


Mai 2020 an der DWD-Station Bevern

(110 m über NN, Sonnenscheindauer interpoliert)

  Tmit Tmax Tmin Tn 5cm RR 24h SSD
01.05.2020 10,3 14,6 5,7 3,5 0,3 4,2
02.05.2020 9,0 13,1 5,4 3,2 2,7 2,0
03.05.2020 10,8 15,0 7,4 5,7 5,9 3,2
04.05.2020 10,1 15,0 5,3 2,0 1,9 4,0
05.05.2020 8,2 14,2 0,9 -1,4 0,0 11,3
06.05.2020 9,5 17,3 0,0 -2,1 0,0 13,9
07.05.2020 11,2 20,3 1,4 -0,8 0,0 13,6
08.05.2020 12,9 21,5 3,9 2,1 0,0 9,8
09.05.2020 14,6 22,7 3,8 1,6 0,0 12,1
10.05.2020 13,0 18,6 6,2 4,0 0,5 2,5
11.05.2020 7,1 10,8 4,3 1,4 0,4 1,9
12.05.2020 6,3 11,8 -0,4 -2,2 0,0 4,1
13.05.2020 8,5 14,9 3,0 0,8 0,0 5,1
14.05.2020 8,7 14,6 1,9 0,0 0,0 7,0
15.05.2020 9,0 15,2 0,3 -1,7 0,0 8,9
16.05.2020 11,1 17,4 1,9 -0,1 0,0 8,4
17.05.2020 12,5 17,5 6,5 4,3 0,0 8,2
18.05.2020 15,0 23,6 5,3 3,2 0,0 12,3
19.05.2020 15,4 22,3 6,9 4,7 0,0 3,3
20.05.2020 14,7 18,7 8,0 5,9 0,1 0,1
21.05.2020 16,0 24,1 6,1 3,7 0,0 14,4
22.05.2020 17,1 23,3 9,5 6,9 9,0 1,1
23.05.2020 14,8 17,7 9,0 6,3 0,0 2,5
24.05.2020 12,2 15,4 7,5 4,7 9,1 1,5
25.05.2020 13,7 18,6 6,7 4,2 0,0 6,0
26.05.2020 12,9 20,7 4,6 2,5 0,0 7,1
27.05.2020 15,8 20,8 6,4 4,7 0,0 10,5
28.05.2020 14,7 20,0 4,9 5,2 0,0 14,5
29.05.2020 14,1 21,4 5,7 4,2 0,0 13,6
30.05.2020 14,3 20,4 6,0 3,4 0,0 10,1
31.05.2020 14,2 21,2 7,0 3,7 0,0 10,0
Mittelwert/
Summe
12,18 18,2 5,0 2,7 29,9 227,2
Mittelwert
1981-2010
13,33       64,3 196,9

Datenbasis: DWD, teilweise bearbeitet


April 2020 an der DWD-Station Bevern

(110 m über NN, Sonnenscheindauer interpoliert)

  Tmit Tmax Tmin Tn 5cm RR 24h SHK SSD
01.04.2020 2,7 10,6 -4,6 -6,9 0,0 0 11,9
02.04.2020 5,1 10,2 -1,2 -3,4 0,4 0 3,1
03.04.2020 7,8 10,9 5,2 3,2 0,0 0 1,5
04.04.2020 7,8 13,4 0,7 -1,7 0,0 0 12,1
05.04.2020 11,5 18,6 2,2 -1,8 0,0 0 12,2
06.04.2020 13,9 23,9 3,8 -0,2 0,0 0 12,3
07.04.2020 12,8 19,6 4,9 2,3 0,0 0 8,6
08.04.2020 14,5 24,2 5,7 3,0 0,0 0 12,4
09.04.2020 12,5 19,9 5,2 2,4 0,0 0 11,6
10.04.2020 9,3 15,8 2,6 -0,2 0,0 0 12,3
11.04.2020 9,8 19,1 0,3 -2,6 0,0 0 12,5
12.04.2020 13,0 23,5 3,1 0,5 0,2 0 11,5
13.04.2020 7,4 10,2 4,4 2,7 0,0 0 4,8
14.04.2020 5,7 10,8 0,7 -1,8 0,0 0 3,7
15.04.2020 8,2 18,2 -0,2 -2,4 0,0 0 10,5
16.04.2020 12,1 22,9 1,6 -0,7 0,0 0 12,6
17.04.2020 11,1 19,1 3,0 0,5 0,0 0 12,8
18.04.2020 13,6 22,4 4,4 1,5 2,9 0 10,4
19.04.2020 10,7 16,1 3,8 -0,5 0,0 0 13,0
20.04.2020 10,1 16,3 0,7 -2,5 0,0 0 13,0
21.04.2020 12,0 17,9 5,4 0,1 0,0 0 13,1
22.04.2020 12,3 19,9 2,3 -0,7 0,0 0 13,1
23.04.2020 12,9 21,7 3,4 -0,5 0,0 0 13,0
24.04.2020 12,7 20,7 5,2 3,0 0,0 0 10,6
25.04.2020 9,8 15,9 3,1 -0,1 0,0 0 5,5
26.04.2020 10,2 19,4 0,4 -2,0 0,0 0 13,2
27.04.2020 12,8 22,9 2,6 -0,2 0,0 0 12,5
28.04.2020 12,4 20,6 4,6 2,2 6,4 0 5,1
29.04.2020 12,7 16,1 8,0 5,9 3,3 0 1,3
30.04.2020 12,0 17,4 7,0 4,6 16,5 0 3,7
               
Mittelwert/
Summe
10,65

17,9

2,9 0,1 29,7 0 293,9
Mittelwert
1981-2010
8,85       49,6   168,1

Datenbasis: DWD, teilweise bearbeitet


März 2020 an der DWD-Station Bevern

(110 m über NN, Sonnenscheindauer interpoliert)

  Tmit Tmax Tmin Tn 5cm RR 24h SHK SSD
01.03.2020 6,7 10,4 3,7 2,5 6,1 0 1,7
02.03.2020 7,0 11,2 3,6 1,4 4,2 0 6,8
03.03.2020 4,9 9,1 0,3 -1,8 0,3 0 3,5
04.03.2020 2,7 7,5 -0,4 -2,6 2,2 0 0,8
05.03.2020 4,4 8,7 -1,0 -2,8 3,7 0 0,3
06.03.2020 4,8 7,2 2,7 2,4 10,4 0 0,0
07.03.2020 4,7 8,9 0,6 -1,7 0,0 0 0,7
08.03.2020 8,1 11,6 3,6 2,3 0,1 0 1,3
09.03.2020 7,8 11,2 4,3 2,0 2,2 0 2,8
10.03.2020 8,2 12,4 4,8 4,1 15,7 0 0,0
11.03.2020 10,3 12,6 7,7 7,4 3,1 0 0,3
12.03.2020 9,7 13,2 4,3 1,9 2,6 0 6,1
13.03.2020 5,8 10,1 3,8 1,7 4,9 0 2,1
14.03.2020 5,7 10,9 0,0 -1,9 0,0 0 7,9
15.03.2020 8,6 14,4 2,1 -0,8 0,0 0 9,4
16.03.2020 8,6 17,3 1,1 -1,8 0,6 0 10,0
17.03.2020 9,4 15,0 3,7 1,0 0,0 0 8,6
18.03.2020 9,1 17,4 1,9 -0,7 0,0 0 9,8
19.03.2020 9,2 15,9 2,2 -0,2 0,0 0 1,9
20.03.2020 7,1 9,1 5,4 4,0 0,9 0 0,0
21.03.2020 4,3 7,5 0,7 -2,6 0,0 0 5,1
22.03.2020 2,3 7,7 -3,0 -6,2 0,0 0 11,3
23.03.2020 2,2 7,7 -2,9 -6,1 0,0 0 11,3
24.03.2020 3,5 9,6 -2,5 -6,0 0,0 0 11,4
25.03.2020 4,1 10,4 -1,8 -5,6 0,0 0 11,3
26.03.2020 4,3 11,0 -3,6 -7,0 0,0 0 11,4
27.03.2020 8,7 16,7 0,0 -3,4 0,0 0 11,1
28.03.2020 8,0 13,8 1,7 -2,2 0,0 0 11,5
29.03.2020 3,1 4,9 -2,5 -5,6 2,7 0 0,0
30.03.2020 0,5 4,4 -5,9 -8,1 0,5 0 1,5
31.03.2020 3,1 8,4 -2,6 -5,6 0,0 0 9,1
Mittelwert/
Summe
6,03 10,8 1,0 -1,4 60,2 0 169,0
Mittelwert
1981-2010
4,91       72,8   104,0

Datenbasis: DWD, teilweise bearbeitet


Februar 2020 an der DWD-Station Bevern

(110 m über NN, Sonnenscheindauer interpoliert)

  Tmit Tmax Tmin Tn 5cm RR 24h SHK SSD
01.02.2020 10,7 12,0 8,1 6,3 11,3 0 0,0
02.02.2020 8,3 11,1 6,3 6,2 8,0 0 0,0
03.02.2020 9,1 10,4 5,1 4,4 6,4 0 0,7
04.02.2020 4,5 6,5 2,7 1,5 1,7 0 0,8
05.02.2020 2,8 6,4 -0,5 -3,2 0,0 0 7,6
06.02.2020 3,8 5,4 0,6 -1,5 0,0 0 0,0
07.02.2020 4,3 8,4 0,0 -2,8 0,0 0 5,0
08.02.2020 3,4 7,0 -1,7 -3,6 0,0 0 2,7
09.02.2020 9,1 12,6 3,9 1,6 14,4 0 1,7
10.02.2020 7,1 11,8 3,7 2,9 8,2 0 1,7
11.02.2020 4,2 6,0 1,5 0,2 2,8 0 2,2
12.02.2020 4,1 6,6 2,4 0,9 0,2 0 1,8
13.02.2020 3,0 4,4 0,0 -2,0 6,4 0 0,0
14.02.2020 5,9 7,7 3,6 2,5 2,1 0 0,2
15.02.2020 7,4 11,1 2,1 0,0 0,0 0 5,5
16.02.2020 12,5 16,3 8,3 7,0 5,2 0 0,8
17.02.2020 8,1 11,3 5,2 3,8 6,2 0 2,7
18.02.2020 6,6 8,7 4,5 3,6 4,8 0 1,7
19.02.2020 5,0 6,4 1,6 -1,5 2,4 0 0,5
20.02.2020 6,2 9,1 1,3 -0,7 5,6 0 0,1
21.02.2020 6,1 8,1 3,6 1,9 0,0 0 1,5
22.02.2020 8,5 11,3 4,5 3,0 5,9 0 0,8
23.02.2020 8,1 12,3 4,6 2,7 22,1 0 0,0
24.02.2020 6,1 10,6 3,8 2,8 7,9 0 0,1
25.02.2020 7,7 10,9 2,5 1,3 4,0 0 3,4
26.02.2020 2,9 4,4 1,3 0,4 7,0 0 0,3
27.02.2020 3,0 5,6 1,2 0,9 1,5 0 0,0
28.02.2020 3,8 6,8 1,4 1,1 5,2 0 2,8
29.02.2020 7,7 12,9 3,2 2,3 3,9 0 3,9
               
               
Mittelwert/
Summe
6,21 9,0 2,9 1,4 143,6 0 48,5
Mittelwert
1981-2010
1,86       60,1   67,7

Datenbasis: DWD, teilweise bearbeitet


Januar 2020 an der DWD-Station Bevern

(110 m über NN, Sonnenscheindauer interpoliert)

  Tmit Tmax Tmin Tn 5cm RR 24h SHK SSD
01.01.2020 -1,1 3,6 -3,2 -4,6 0,0 0 4,6
02.01.2020 -0,7 3,1 -4,4 -6,1 0,0 0 4,4
03.01.2020 5,3 8,8 2,3 0,9 7,1 0 0,0
04.01.2020 4,6 6,3 0,8 -1,5 5,1 0 0,0
05.01.2020 2,6 5,2 -0,6 -2,5 0,2 0 0,0
06.01.2020 3,2 5,3 -1,4 -3,3 0,0 0 0,4
07.01.2020 3,8 6,4 0,0 -1,9 0,3 0 0,0
08.01.2020 6,5 7,5 5,4 4,0 4,1 0 0,0
09.01.2020 9,6 11,9 6,7 6,2 4,2 0 0,0
10.01.2020 8,1 11,2 4,5 2,5 2,5 0 1,2
11.01.2020 4,2 6,4 2,0 -0,1 0,0 0 2,2
12.01.2020 4,4 7,8 1,9 -0,4 0,9 0 0,0
13.01.2020 6,4 8,5 5,2 2,5 0,4 0 2,0
14.01.2020 9,4 11,1 7,0 6,0 0,0 0 0,0
15.01.2020 11,0 12,9 7,9 6,0 1,5 0 5,3
16.01.2020 5,1 11,1 1,1 -1,6 0,0 0 6,6
17.01.2020 6,3 10,5 2,0 -0,9 0,2 0 4,9
18.01.2020 4,7 6,9 3,0 2,1 2,2 0 0,4
19.01.2020 3,7 5,3 1,7 -0,6 1,2 0 0,0
20.01.2020 1,9 6,4 -2,0 -4,0 0,0 0 1,2
21.01.2020 -1,2 4,0 -3,8 -5,8 0,0 0 7,4
22.01.2020 0,7 2,5 -3,6 -5,1 0,4 0 0,0
23.01.2020 1,5 4,7 -3,1 -4,7 0,0 0 0,1
24.01.2020 -0,7 0,7 -3,4 -4,9 0,0 0 0,0
25.01.2020 -0,2 0,4 -0,9 -0,9 0,0 0 0,0
26.01.2020 1,5 3,5 -0,1 -1,2 0,0 0 0,0
27.01.2020 5,7 8,3 0,3 -1,6 6,4 0 0,0
28.01.2020 5,2 6,8 2,9 1,7 2,1 0 0,0
29.01.2020 4,5 5,4 3,9 2,9 0,6 0 0,2
30.01.2020 7,0 9,5 4,4 4,0 1,4 0 0,0
31.01.2020 11,7 13,3 9,4 8,6 0,0 0 1,6
Mittelwert/
Summe
4,35 6,9 1,5 -0,1 40,8 0 42,5
Mittelwert
1981-2010
1,3       79,2   44,8

Datenbasis: DWD, teilweise bearbeitet